sensor_id;sensor_type;location;lat;lon;timestamp;pressure;altitude;pressure_sealevel;temperature;humidity
76257;BME280;65074;50.436;8.672;2024-03-07T00:02:20;100191.53;;;5.36;100.00
76257;BME280;65074;50.436;8.672;2024-03-07T00:04:45;100187.91;;;5.22;100.00
76257;BME280;65074;50.436;8.672;2024-03-07T00:07:11;100193.56;;;5.06;100.00
76257;BME280;65074;50.436;8.672;2024-03-07T00:09:37;100189.31;;;4.90;100.00
76257;BME280;65074;50.436;8.672;2024-03-07T00:12:03;100187.56;;;4.76;100.00
76257;BME280;65074;50.436;8.672;2024-03-07T00:14:29;100195.06;;;4.66;100.00
76257;BME280;65074;50.436;8.672;2024-03-07T00:17:00;100198.22;;;4.55;100.00
76257;BME280;65074;50.436;8.672;2024-03-07T00:19:26;100198.13;;;4.42;100.00
76257;BME280;65074;50.436;8.672;2024-03-07T00:21:52;100198.50;;;4.39;100.00
76257;BME280;65074;50.436;8.672;2024-03-07T00:24:19;100204.56;;;4.33;100.00
76257;BME280;65074;50.436;8.672;2024-03-07T00:26:44;100200.16;;;4.25;100.00
76257;BME280;65074;50.436;8.672;2024-03-07T00:29:09;100199.28;;;4.18;100.00
76257;BME280;65074;50.436;8.672;2024-03-07T00:31:35;100199.38;;;4.10;100.00
76257;BME280;65074;50.436;8.672;2024-03-07T00:34:01;100203.19;;;4.01;100.00
76257;BME280;65074;50.436;8.672;2024-03-07T00:36:26;100198.16;;;3.91;100.00
76257;BME280;65074;50.436;8.672;2024-03-07T00:38:52;100200.47;;;3.80;100.00
76257;BME280;65074;50.436;8.672;2024-03-07T00:41:18;100195.25;;;3.72;100.00
76257;BME280;65074;50.436;8.672;2024-03-07T00:43:44;100198.47;;;3.67;100.00
76257;BME280;65074;50.436;8.672;2024-03-07T00:46:09;100196.34;;;3.63;100.00
76257;BME280;65074;50.436;8.672;2024-03-07T00:48:36;100196.34;;;3.63;100.00
76257;BME280;65074;50.436;8.672;2024-03-07T00:51:03;100198.47;;;3.67;100.00
76257;BME280;65074;50.436;8.672;2024-03-07T00:53:31;100187.25;;;3.72;100.00
76257;BME280;65074;50.436;8.672;2024-03-07T00:55:57;100189.56;;;3.75;100.00
76257;BME280;65074;50.436;8.672;2024-03-07T00:58:22;100179.06;;;3.73;100.00
76257;BME280;65074;50.436;8.672;2024-03-07T01:00:48;100180.91;;;3.73;100.00
76257;BME280;65074;50.436;8.672;2024-03-07T01:03:13;100181.84;;;3.80;100.00
76257;BME280;65074;50.436;8.672;2024-03-07T01:05:39;100180.19;;;3.79;100.00
76257;BME280;65074;50.436;8.672;2024-03-07T01:08:05;100184.22;;;3.75;100.00
76257;BME280;65074;50.436;8.672;2024-03-07T01:10:31;100182.22;;;3.62;100.00
76257;BME280;65074;50.436;8.672;2024-03-07T01:12:57;100186.53;;;3.49;100.00
76257;BME280;65074;50.436;8.672;2024-03-07T01:15:26;100182.88;;;3.35;100.00
76257;BME280;65074;50.436;8.672;2024-03-07T01:17:52;100187.00;;;3.23;100.00
76257;BME280;65074;50.436;8.672;2024-03-07T01:20:17;100179.81;;;3.23;100.00
76257;BME280;65074;50.436;8.672;2024-03-07T01:22:42;100180.28;;;3.27;100.00
76257;BME280;65074;50.436;8.672;2024-03-07T01:25:08;100179.00;;;3.23;100.00
76257;BME280;65074;50.436;8.672;2024-03-07T01:27:33;100179.00;;;3.23;100.00
76257;BME280;65074;50.436;8.672;2024-03-07T01:29:59;100172.69;;;3.24;100.00
76257;BME280;65074;50.436;8.672;2024-03-07T01:32:24;100175.06;;;3.19;100.00
76257;BME280;65074;50.436;8.672;2024-03-07T01:34:49;100171.19;;;3.07;100.00
76257;BME280;65074;50.436;8.672;2024-03-07T01:37:15;100171.81;;;2.94;100.00
76257;BME280;65074;50.436;8.672;2024-03-07T01:39:40;100179.88;;;2.86;100.00
76257;BME280;65074;50.436;8.672;2024-03-07T01:42:06;100172.97;;;2.77;100.00
76257;BME280;65074;50.436;8.672;2024-03-07T01:44:36;100174.88;;;2.69;100.00
76257;BME280;65074;50.436;8.672;2024-03-07T01:47:04;100174.59;;;2.63;100.00
76257;BME280;65074;50.436;8.672;2024-03-07T01:49:35;100171.94;;;2.63;100.00
76257;BME280;65074;50.436;8.672;2024-03-07T01:52:03;100174.94;;;2.60;100.00
76257;BME280;65074;50.436;8.672;2024-03-07T01:54:34;100173.81;;;2.55;100.00
76257;BME280;65074;50.436;8.672;2024-03-07T01:57:01;100174.66;;;2.55;100.00
76257;BME280;65074;50.436;8.672;2024-03-07T01:59:26;100172.19;;;2.54;100.00
76257;BME280;65074;50.436;8.672;2024-03-07T02:01:55;100169.88;;;2.51;100.00
76257;BME280;65074;50.436;8.672;2024-03-07T02:04:22;100165.09;;;2.46;100.00
76257;BME280;65074;50.436;8.672;2024-03-07T02:06:49;100178.91;;;2.42;100.00
76257;BME280;65074;50.436;8.672;2024-03-07T02:09:15;100167.63;;;2.40;100.00
76257;BME280;65074;50.436;8.672;2024-03-07T02:11:40;100167.63;;;2.40;100.00
76257;BME280;65074;50.436;8.672;2024-03-07T02:14:05;100163.97;;;2.41;100.00
76257;BME280;65074;50.436;8.672;2024-03-07T02:16:31;100169.59;;;2.46;100.00
76257;BME280;65074;50.436;8.672;2024-03-07T02:18:57;100166.03;;;2.53;100.00
76257;BME280;65074;50.436;8.672;2024-03-07T02:21:24;100168.44;;;2.63;100.00
76257;BME280;65074;50.436;8.672;2024-03-07T02:23:52;100157.22;;;2.76;100.00
76257;BME280;65074;50.436;8.672;2024-03-07T02:26:18;100155.28;;;2.84;100.00
76257;BME280;65074;50.436;8.672;2024-03-07T02:28:43;100150.09;;;2.91;100.00
76257;BME280;65074;50.436;8.672;2024-03-07T02:31:09;100146.34;;;3.00;100.00
76257;BME280;65074;50.436;8.672;2024-03-07T02:33:34;100144.16;;;3.03;100.00
76257;BME280;65074;50.436;8.672;2024-03-07T02:35:59;100142.78;;;3.07;100.00
76257;BME280;65074;50.436;8.672;2024-03-07T02:38:25;100140.97;;;3.08;100.00
76257;BME280;65074;50.436;8.672;2024-03-07T02:40:50;100137.81;;;3.04;100.00
76257;BME280;65074;50.436;8.672;2024-03-07T02:43:15;100139.84;;;3.02;100.00
76257;BME280;65074;50.436;8.672;2024-03-07T02:45:41;100138.56;;;2.98;100.00
76257;BME280;65074;50.436;8.672;2024-03-07T02:48:06;100139.28;;;2.92;100.00
76257;BME280;65074;50.436;8.672;2024-03-07T02:50:37;100134.53;;;2.88;100.00
76257;BME280;65074;50.436;8.672;2024-03-07T02:53:06;100136.81;;;2.91;100.00
76257;BME280;65074;50.436;8.672;2024-03-07T02:55:32;100136.19;;;2.89;100.00
76257;BME280;65074;50.436;8.672;2024-03-07T02:57:58;100138.28;;;2.93;100.00
76257;BME280;65074;50.436;8.672;2024-03-07T03:00:27;100138.94;;;2.95;100.00
76257;BME280;65074;50.436;8.672;2024-03-07T03:02:55;100139.22;;;3.00;100.00
76257;BME280;65074;50.436;8.672;2024-03-07T03:05:21;100136.56;;;3.00;100.00
76257;BME280;65074;50.436;8.672;2024-03-07T03:07:48;100138.03;;;3.03;100.00
76257;BME280;65074;50.436;8.672;2024-03-07T03:10:23;100129.31;;;3.09;100.00
76257;BME280;65074;50.436;8.672;2024-03-07T03:12:54;100130.97;;;3.10;100.00
76257;BME280;65074;50.436;8.672;2024-03-07T03:15:21;100131.59;;;3.12;100.00
76257;BME280;65074;50.436;8.672;2024-03-07T03:17:47;100130.97;;;3.10;100.00
76257;BME280;65074;50.436;8.672;2024-03-07T03:20:13;100130.13;;;3.09;100.00
76257;BME280;65074;50.436;8.672;2024-03-07T03:22:54;100123.81;;;3.10;100.00
76257;BME280;65074;50.436;8.672;2024-03-07T03:25:20;100124.25;;;3.14;100.00
76257;BME280;65074;50.436;8.672;2024-03-07T03:27:49;100126.56;;;3.17;100.00
76257;BME280;65074;50.436;8.672;2024-03-07T03:30:15;100122.53;;;3.21;100.00
76257;BME280;65074;50.436;8.672;2024-03-07T03:32:46;100128.31;;;3.24;100.00
76257;BME280;65074;50.436;8.672;2024-03-07T03:35:13;100128.78;;;3.28;100.00
76257;BME280;65074;50.436;8.672;2024-03-07T03:37:40;100125.84;;;3.38;100.00
76257;BME280;65074;50.436;8.672;2024-03-07T03:40:06;100122.97;;;3.39;100.00
76257;BME280;65074;50.436;8.672;2024-03-07T03:42:34;100116.09;;;3.45;100.00
76257;BME280;65074;50.436;8.672;2024-03-07T03:44:59;100117.72;;;3.46;100.00
76257;BME280;65074;50.436;8.672;2024-03-07T03:47:24;100120.59;;;3.44;100.00
76257;BME280;65074;50.436;8.672;2024-03-07T03:49:50;100117.03;;;3.37;100.00
76257;BME280;65074;50.436;8.672;2024-03-07T03:52:16;100121.34;;;3.38;100.00
76257;BME280;65074;50.436;8.672;2024-03-07T03:54:41;100112.63;;;3.29;100.00
76257;BME280;65074;50.436;8.672;2024-03-07T03:57:06;100117.94;;;3.15;100.00
76257;BME280;65074;50.436;8.672;2024-03-07T03:59:32;100119.56;;;3.01;100.00
76257;BME280;65074;50.436;8.672;2024-03-07T04:01:58;100112.91;;;2.91;100.00
76257;BME280;65074;50.436;8.672;2024-03-07T04:04:25;100113.16;;;2.81;100.00
76257;BME280;65074;50.436;8.672;2024-03-07T04:06:51;100112.41;;;2.73;100.00
76257;BME280;65074;50.436;8.672;2024-03-07T04:09:16;100119.47;;;2.66;100.00
76257;BME280;65074;50.436;8.672;2024-03-07T04:11:45;100113.22;;;2.58;100.00
76257;BME280;65074;50.436;8.672;2024-03-07T04:14:10;100119.44;;;2.51;100.00
76257;BME280;65074;50.436;8.672;2024-03-07T04:16:35;100114.13;;;2.51;100.00
76257;BME280;65074;50.436;8.672;2024-03-07T04:19:01;100117.13;;;2.48;100.00
76257;BME280;65074;50.436;8.672;2024-03-07T04:21:26;100119.31;;;2.44;100.00
76257;BME280;65074;50.436;8.672;2024-03-07T04:23:51;100117.47;;;2.45;100.00
76257;BME280;65074;50.436;8.672;2024-03-07T04:26:17;100114.72;;;2.38;100.00
76257;BME280;65074;50.436;8.672;2024-03-07T04:28:42;100116.88;;;2.35;100.00
76257;BME280;65074;50.436;8.672;2024-03-07T04:31:08;100110.66;;;2.28;100.00
76257;BME280;65074;50.436;8.672;2024-03-07T04:33:33;100110.34;;;2.23;100.00
76257;BME280;65074;50.436;8.672;2024-03-07T04:35:58;100115.56;;;2.16;100.00
76257;BME280;65074;50.436;8.672;2024-03-07T04:38:27;100106.13;;;2.14;100.00
76257;BME280;65074;50.436;8.672;2024-03-07T04:40:53;100108.13;;;2.12;100.00
76257;BME280;65074;50.436;8.672;2024-03-07T04:43:19;100114.13;;;2.06;100.00
76257;BME280;65074;50.436;8.672;2024-03-07T04:45:44;100119.31;;;1.99;100.00
76257;BME280;65074;50.436;8.672;2024-03-07T04:48:10;100106.69;;;2.01;100.00
76257;BME280;65074;50.436;8.672;2024-03-07T04:50:39;100111.19;;;2.01;100.00
76257;BME280;65074;50.436;8.672;2024-03-07T04:53:04;100110.34;;;2.00;100.00
76257;BME280;65074;50.436;8.672;2024-03-07T04:55:29;100114.03;;;1.99;100.00
76257;BME280;65074;50.436;8.672;2024-03-07T04:57:55;100115.88;;;1.90;100.00
76257;BME280;65074;50.436;8.672;2024-03-07T05:00:20;100117.94;;;1.80;100.00
76257;BME280;65074;50.436;8.672;2024-03-07T05:02:48;100120.97;;;1.77;100.00
76257;BME280;65074;50.436;8.672;2024-03-07T05:05:15;100123.00;;;1.67;100.00
76257;BME280;65074;50.436;8.672;2024-03-07T05:07:48;100116.56;;;1.62;100.00
76257;BME280;65074;50.436;8.672;2024-03-07T05:10:17;100128.69;;;1.56;100.00
76257;BME280;65074;50.436;8.672;2024-03-07T05:12:43;100127.19;;;1.54;100.00
76257;BME280;65074;50.436;8.672;2024-03-07T05:15:08;100120.59;;;1.50;100.00
76257;BME280;65074;50.436;8.672;2024-03-07T05:17:35;100123.41;;;1.48;100.00
76257;BME280;65074;50.436;8.672;2024-03-07T05:20:03;100120.59;;;1.50;100.00
76257;BME280;65074;50.436;8.672;2024-03-07T05:22:35;100129.19;;;1.52;100.00
76257;BME280;65074;50.436;8.672;2024-03-07T05:25:00;100119.56;;;1.51;100.00
76257;BME280;65074;50.436;8.672;2024-03-07T05:27:26;100121.28;;;1.44;100.00
76257;BME280;65074;50.436;8.672;2024-03-07T05:29:52;100113.16;;;1.45;100.00
76257;BME280;65074;50.436;8.672;2024-03-07T05:32:25;100114.28;;;1.51;100.00
76257;BME280;65074;50.436;8.672;2024-03-07T05:34:51;100118.72;;;1.58;100.00
76257;BME280;65074;50.436;8.672;2024-03-07T05:37:19;100116.88;;;1.67;100.00
76257;BME280;65074;50.436;8.672;2024-03-07T05:39:50;100117.47;;;1.77;100.00
76257;BME280;65074;50.436;8.672;2024-03-07T05:42:15;100123.19;;;1.88;100.00
76257;BME280;65074;50.436;8.672;2024-03-07T05:44:41;100118.69;;;1.97;100.00
76257;BME280;65074;50.436;8.672;2024-03-07T05:47:08;100124.59;;;2.07;100.00
76257;BME280;65074;50.436;8.672;2024-03-07T05:49:34;100116.03;;;2.20;100.00
76257;BME280;65074;50.436;8.672;2024-03-07T05:51:59;100117.91;;;2.34;100.00
76257;BME280;65074;50.436;8.672;2024-03-07T05:54:25;100111.53;;;2.43;100.00
76257;BME280;65074;50.436;8.672;2024-03-07T05:56:50;100106.59;;;2.54;100.00
76257;BME280;65074;50.436;8.672;2024-03-07T05:59:16;100111.69;;;2.64;100.00
76257;BME280;65074;50.436;8.672;2024-03-07T06:01:42;100116.06;;;2.72;100.00
76257;BME280;65074;50.436;8.672;2024-03-07T06:04:07;100106.38;;;2.79;100.00
76257;BME280;65074;50.436;8.672;2024-03-07T06:06:36;100111.59;;;2.87;100.00
76257;BME280;65074;50.436;8.672;2024-03-07T06:09:04;100114.38;;;2.93;100.00
76257;BME280;65074;50.436;8.672;2024-03-07T06:11:36;100110.97;;;2.99;100.00
76257;BME280;65074;50.436;8.672;2024-03-07T06:14:02;100108.16;;;3.01;100.00
76257;BME280;65074;50.436;8.672;2024-03-07T06:16:33;100106.13;;;3.03;100.00
76257;BME280;65074;50.436;8.672;2024-03-07T06:19:01;100111.25;;;3.04;100.00
76257;BME280;65074;50.436;8.672;2024-03-07T06:21:26;100106.56;;;3.06;100.00
76257;BME280;65074;50.436;8.672;2024-03-07T06:23:53;100109.34;;;3.13;100.00
76257;BME280;65074;50.436;8.672;2024-03-07T06:26:25;100111.63;;;3.16;100.00
76257;BME280;65074;50.436;8.672;2024-03-07T06:29:05;100112.91;;;3.20;100.00
76257;BME280;65074;50.436;8.672;2024-03-07T06:31:31;100110.34;;;3.26;100.00
76257;BME280;65074;50.436;8.672;2024-03-07T06:33:57;100107.13;;;3.31;100.00
76257;BME280;65074;50.436;8.672;2024-03-07T06:36:23;100116.28;;;3.28;100.00
76257;BME280;65074;50.436;8.672;2024-03-07T06:38:49;100119.97;;;3.27;100.00
76257;BME280;65074;50.436;8.672;2024-03-07T06:41:14;100109.97;;;3.29;100.00
76257;BME280;65074;50.436;8.672;2024-03-07T06:43:40;100122.44;;;3.29;100.00
76257;BME280;65074;50.436;8.672;2024-03-07T06:46:05;100112.06;;;3.34;100.00
76257;BME280;65074;50.436;8.672;2024-03-07T06:48:31;100110.88;;;3.37;100.00
76257;BME280;65074;50.436;8.672;2024-03-07T06:50:57;100106.19;;;3.39;100.00
76257;BME280;65074;50.436;8.672;2024-03-07T06:53:22;100111.16;;;3.42;100.00
76257;BME280;65074;50.436;8.672;2024-03-07T06:55:51;100106.84;;;3.41;100.00
76257;BME280;65074;50.436;8.672;2024-03-07T06:58:19;100111.16;;;3.42;100.00
76257;BME280;65074;50.436;8.672;2024-03-07T07:00:48;100106.84;;;3.41;100.00
76257;BME280;65074;50.436;8.672;2024-03-07T07:03:13;100109.31;;;3.42;100.00
76257;BME280;65074;50.436;8.672;2024-03-07T07:05:40;100115.91;;;3.46;100.00
76257;BME280;65074;50.436;8.672;2024-03-07T07:08:06;100116.63;;;3.55;100.00
76257;BME280;65074;50.436;8.672;2024-03-07T07:10:32;100117.34;;;3.63;100.00
76257;BME280;65074;50.436;8.672;2024-03-07T07:12:58;100117.72;;;3.75;100.00
76257;BME280;65074;50.436;8.672;2024-03-07T07:15:23;100117.19;;;3.86;100.00
76257;BME280;65074;50.436;8.672;2024-03-07T07:17:49;100117.00;;;4.02;100.00
76257;BME280;65074;50.436;8.672;2024-03-07T07:20:16;100117.75;;;4.17;100.00
76257;BME280;65074;50.436;8.672;2024-03-07T07:22:47;100120.16;;;4.33;100.00
76257;BME280;65074;50.436;8.672;2024-03-07T07:25:13;100118.25;;;4.48;100.00
76257;BME280;65074;50.436;8.672;2024-03-07T07:27:51;100116.00;;;4.52;100.00
76257;BME280;65074;50.436;8.672;2024-03-07T07:30:18;100112.91;;;4.48;100.00
76257;BME280;65074;50.436;8.672;2024-03-07T07:32:44;100114.38;;;4.30;100.00
76257;BME280;65074;50.436;8.672;2024-03-07T07:35:13;100111.53;;;4.10;100.00
76257;BME280;65074;50.436;8.672;2024-03-07T07:37:40;100112.47;;;4.03;100.00
76257;BME280;65074;50.436;8.672;2024-03-07T07:40:10;100110.00;;;4.01;100.00
76257;BME280;65074;50.436;8.672;2024-03-07T07:42:40;100109.88;;;4.09;100.00
76257;BME280;65074;50.436;8.672;2024-03-07T07:45:08;100109.50;;;4.12;100.00
76257;BME280;65074;50.436;8.672;2024-03-07T07:47:41;100099.91;;;4.18;100.00
76257;BME280;65074;50.436;8.672;2024-03-07T07:50:10;100100.81;;;4.25;100.00
76257;BME280;65074;50.436;8.672;2024-03-07T07:52:50;100095.56;;;4.31;100.00
76257;BME280;65074;50.436;8.672;2024-03-07T07:55:17;100104.63;;;4.37;100.00
76257;BME280;65074;50.436;8.672;2024-03-07T07:57:48;100095.59;;;4.38;100.00
76257;BME280;65074;50.436;8.672;2024-03-07T08:00:17;100090.31;;;4.44;100.00
76257;BME280;65074;50.436;8.672;2024-03-07T08:02:52;100083.41;;;4.50;100.00
76257;BME280;65074;50.436;8.672;2024-03-07T08:05:25;100085.91;;;4.51;100.00
76257;BME280;65074;50.436;8.672;2024-03-07T08:07:53;100078.31;;;4.55;100.00
76257;BME280;65074;50.436;8.672;2024-03-07T08:10:20;100081.09;;;4.68;100.00
76257;BME280;65074;50.436;8.672;2024-03-07T08:12:46;100077.47;;;4.76;100.00
76257;BME280;65074;50.436;8.672;2024-03-07T08:15:12;100084.25;;;4.78;100.00
76257;BME280;65074;50.436;8.672;2024-03-07T08:17:40;100083.28;;;4.86;100.00
76257;BME280;65074;50.436;8.672;2024-03-07T08:20:09;100086.38;;;4.89;100.00
76257;BME280;65074;50.436;8.672;2024-03-07T08:22:38;100090.69;;;4.90;100.00
76257;BME280;65074;50.436;8.672;2024-03-07T08:25:09;100103.19;;;4.90;99.63
76257;BME280;65074;50.436;8.672;2024-03-07T08:27:42;100098.66;;;4.84;99.95
76257;BME280;65074;50.436;8.672;2024-03-07T08:30:09;100086.56;;;4.88;100.00
76257;BME280;65074;50.436;8.672;2024-03-07T08:32:43;100091.81;;;4.75;99.69
76257;BME280;65074;50.436;8.672;2024-03-07T08:35:09;100098.19;;;4.80;100.00
76257;BME280;65074;50.436;8.672;2024-03-07T08:37:36;100093.16;;;4.92;100.00
76257;BME280;65074;50.436;8.672;2024-03-07T08:40:02;100088.13;;;5.03;100.00
76257;BME280;65074;50.436;8.672;2024-03-07T08:42:34;100086.31;;;5.10;99.45
76257;BME280;65074;50.436;8.672;2024-03-07T08:45:01;100086.53;;;5.15;99.60
76257;BME280;65074;50.436;8.672;2024-03-07T08:47:34;100087.38;;;5.16;100.00
76257;BME280;65074;50.436;8.672;2024-03-07T08:50:00;100084.47;;;5.11;98.91
76257;BME280;65074;50.436;8.672;2024-03-07T08:52:26;100085.72;;;5.15;99.02
76257;BME280;65074;50.436;8.672;2024-03-07T08:54:51;100071.16;;;5.17;99.28
76257;BME280;65074;50.436;8.672;2024-03-07T08:57:16;100075.69;;;5.23;99.49
76257;BME280;65074;50.436;8.672;2024-03-07T08:59:43;100074.91;;;5.30;99.81
76257;BME280;65074;50.436;8.672;2024-03-07T09:02:09;100072.91;;;5.38;99.48
76257;BME280;65074;50.436;8.672;2024-03-07T09:04:36;100077.00;;;5.41;98.78
76257;BME280;65074;50.436;8.672;2024-03-07T09:07:01;100073.94;;;5.44;99.18
76257;BME280;65074;50.436;8.672;2024-03-07T09:09:27;100076.22;;;5.47;97.32
76257;BME280;65074;50.436;8.672;2024-03-07T09:11:52;100064.09;;;5.44;98.16
76257;BME280;65074;50.436;8.672;2024-03-07T09:14:17;100070.66;;;5.42;97.80
76257;BME280;65074;50.436;8.672;2024-03-07T09:16:43;100078.28;;;5.51;98.94
76257;BME280;65074;50.436;8.672;2024-03-07T09:19:09;100073.78;;;5.52;97.85
76257;BME280;65074;50.436;8.672;2024-03-07T09:21:39;100080.56;;;5.54;98.80
76257;BME280;65074;50.436;8.672;2024-03-07T09:24:05;100077.09;;;5.60;99.05
76257;BME280;65074;50.436;8.672;2024-03-07T09:26:32;100072.56;;;5.54;98.37
76257;BME280;65074;50.436;8.672;2024-03-07T09:28:59;100077.72;;;5.62;98.65
76257;BME280;65074;50.436;8.672;2024-03-07T09:31:26;100077.94;;;5.67;99.43
76257;BME280;65074;50.436;8.672;2024-03-07T09:33:51;100073.63;;;5.73;98.72
76257;BME280;65074;50.436;8.672;2024-03-07T09:36:17;100069.78;;;5.82;96.47
76257;BME280;65074;50.436;8.672;2024-03-07T09:38:44;100074.94;;;5.90;97.69
76257;BME280;65074;50.436;8.672;2024-03-07T09:41:09;100070.91;;;6.07;94.58
76257;BME280;65074;50.436;8.672;2024-03-07T09:43:35;100071.53;;;6.29;95.56
76257;BME280;65074;50.436;8.672;2024-03-07T09:46:03;100064.97;;;6.51;94.35
76257;BME280;65074;50.436;8.672;2024-03-07T09:48:28;100061.84;;;6.47;91.91
76257;BME280;65074;50.436;8.672;2024-03-07T09:50:55;100062.47;;;6.63;91.65
76257;BME280;65074;50.436;8.672;2024-03-07T09:53:24;100066.38;;;6.73;90.42
76257;BME280;65074;50.436;8.672;2024-03-07T09:55:52;100061.81;;;6.87;91.76
76257;BME280;65074;50.436;8.672;2024-03-07T09:58:19;100065.09;;;7.02;90.69
76257;BME280;65074;50.436;8.672;2024-03-07T10:00:45;100066.31;;;7.12;88.74
76257;BME280;65074;50.436;8.672;2024-03-07T10:03:12;100066.91;;;7.14;88.68
76257;BME280;65074;50.436;8.672;2024-03-07T10:05:43;100075.53;;;7.23;88.32
76257;BME280;65074;50.436;8.672;2024-03-07T10:08:09;100067.25;;;7.38;87.86
76257;BME280;65074;50.436;8.672;2024-03-07T10:10:36;100061.59;;;7.59;88.18
76257;BME280;65074;50.436;8.672;2024-03-07T10:13:01;100066.84;;;7.78;87.12
76257;BME280;65074;50.436;8.672;2024-03-07T10:15:31;100056.50;;;7.88;84.71
76257;BME280;65074;50.436;8.672;2024-03-07T10:17:58;100052.75;;;7.96;85.59
76257;BME280;65074;50.436;8.672;2024-03-07T10:20:24;100055.78;;;8.06;84.37
76257;BME280;65074;50.436;8.672;2024-03-07T10:22:50;100058.63;;;8.11;82.76
76257;BME280;65074;50.436;8.672;2024-03-07T10:25:20;100055.06;;;7.86;84.33
76257;BME280;65074;50.436;8.672;2024-03-07T10:27:47;100055.47;;;7.90;84.27
76257;BME280;65074;50.436;8.672;2024-03-07T10:30:15;100051.31;;;7.94;84.06
76257;BME280;65074;50.436;8.672;2024-03-07T10:32:56;100047.91;;;7.80;85.21
76257;BME280;65074;50.436;8.672;2024-03-07T10:35:23;100046.13;;;7.99;85.41
76257;BME280;65074;50.436;8.672;2024-03-07T10:37:55;100051.06;;;8.02;85.46
76257;BME280;65074;50.436;8.672;2024-03-07T10:40:24;100046.66;;;8.14;83.59
76257;BME280;65074;50.436;8.672;2024-03-07T10:42:56;100050.75;;;8.16;83.00
76257;BME280;65074;50.436;8.672;2024-03-07T10:45:21;100050.28;;;8.26;80.84
76257;BME280;65074;50.436;8.672;2024-03-07T10:47:54;100049.38;;;8.38;81.65
76257;BME280;65074;50.436;8.672;2024-03-07T10:53:08;100034.66;;;8.72;81.71
76257;BME280;65074;50.436;8.672;2024-03-07T10:59:06;100023.44;;;9.00;79.40
76257;BME280;65074;50.436;8.672;2024-03-07T11:01:39;100026.47;;;9.22;77.72
76257;BME280;65074;50.436;8.672;2024-03-07T11:04:09;100027.22;;;9.47;76.10
76257;BME280;65074;50.436;8.672;2024-03-07T11:06:34;100017.78;;;9.56;75.11
76257;BME280;65074;50.436;8.672;2024-03-07T11:09:03;100010.28;;;9.76;73.46
76257;BME280;65074;50.436;8.672;2024-03-07T11:11:38;100006.41;;;9.72;71.72
76257;BME280;65074;50.436;8.672;2024-03-07T11:14:10;100004.06;;;9.75;69.87
76257;BME280;65074;50.436;8.672;2024-03-07T11:16:40;100004.56;;;9.72;70.96
76257;BME280;65074;50.436;8.672;2024-03-07T11:19:27;100000.03;;;9.85;71.74
76257;BME280;65074;50.436;8.672;2024-03-07T11:21:54;99996.47;;;10.02;70.74
76257;BME280;65074;50.436;8.672;2024-03-07T11:24:28;100000.16;;;10.19;70.15
76257;BME280;65074;50.436;8.672;2024-03-07T11:26:55;99995.94;;;10.12;69.51
76257;BME280;65074;50.436;8.672;2024-03-07T11:29:48;99989.81;;;10.05;67.16
76257;BME280;65074;50.436;8.672;2024-03-07T11:32:19;99988.28;;;9.97;68.20
76257;BME280;65074;50.436;8.672;2024-03-07T11:34:47;99983.13;;;9.96;68.19
76257;BME280;65074;50.436;8.672;2024-03-07T11:37:20;99974.00;;;9.97;69.33
76257;BME280;65074;50.436;8.672;2024-03-07T11:39:49;99971.69;;;9.70;68.72
76257;BME280;65074;50.436;8.672;2024-03-07T11:42:24;99971.97;;;9.80;69.44
76257;BME280;65074;50.436;8.672;2024-03-07T11:44:59;99970.50;;;9.96;69.78
76257;BME280;65074;50.436;8.672;2024-03-07T11:47:26;99960.00;;;10.06;70.39
76257;BME280;65074;50.436;8.672;2024-03-07T11:49:55;99959.41;;;10.04;68.94
76257;BME280;65074;50.436;8.672;2024-03-07T11:52:24;99959.31;;;10.11;66.59
76257;BME280;65074;50.436;8.672;2024-03-07T11:54:49;99951.06;;;10.24;67.71
76257;BME280;65074;50.436;8.672;2024-03-07T11:57:17;99949.19;;;10.24;68.17
76257;BME280;65074;50.436;8.672;2024-03-07T11:59:45;99944.28;;;10.33;67.90
76257;BME280;65074;50.436;8.672;2024-03-07T12:02:15;99941.09;;;10.59;68.28
76257;BME280;65074;50.436;8.672;2024-03-07T12:04:44;99934.16;;;10.86;68.31
76257;BME280;65074;50.436;8.672;2024-03-07T12:07:09;99937.88;;;10.97;65.30
76257;BME280;65074;50.436;8.672;2024-03-07T12:09:39;99924.00;;;10.77;64.90
76257;BME280;65074;50.436;8.672;2024-03-07T12:12:06;99922.16;;;10.66;64.83
76257;BME280;65074;50.436;8.672;2024-03-07T12:14:32;99925.56;;;10.61;66.46
76257;BME280;65074;50.436;8.672;2024-03-07T12:17:03;99924.53;;;10.39;66.25
76257;BME280;65074;50.436;8.672;2024-03-07T12:19:33;99918.91;;;10.29;67.53
76257;BME280;65074;50.436;8.672;2024-03-07T12:22:02;99918.31;;;10.15;68.59
76257;BME280;65074;50.436;8.672;2024-03-07T12:24:29;99919.06;;;9.93;69.30
76257;BME280;65074;50.436;8.672;2024-03-07T12:27:15;99907.84;;;9.72;70.02
76257;BME280;65074;50.436;8.672;2024-03-07T12:29:41;99912.31;;;9.49;72.01
76257;BME280;65074;50.436;8.672;2024-03-07T12:32:13;99906.19;;;9.30;72.78
76257;BME280;65074;50.436;8.672;2024-03-07T12:34:39;99904.72;;;9.16;73.72
76257;BME280;65074;50.436;8.672;2024-03-07T12:37:10;99905.44;;;8.93;73.93
76257;BME280;65074;50.436;8.672;2024-03-07T12:39:36;99893.59;;;8.83;74.46
76257;BME280;65074;50.436;8.672;2024-03-07T12:42:12;99898.00;;;8.77;75.05
76257;BME280;65074;50.436;8.672;2024-03-07T12:44:43;99897.03;;;8.72;77.35
76257;BME280;65074;50.436;8.672;2024-03-07T12:47:11;99894.34;;;8.72;77.38
76257;BME280;65074;50.436;8.672;2024-03-07T12:49:38;99893.84;;;8.81;77.04
76257;BME280;65074;50.436;8.672;2024-03-07T12:52:04;99888.72;;;8.91;76.36
76257;BME280;65074;50.436;8.672;2024-03-07T12:54:31;99885.75;;;8.99;74.44
76257;BME280;65074;50.436;8.672;2024-03-07T12:56:56;99877.81;;;9.23;74.74
76257;BME280;65074;50.436;8.672;2024-03-07T12:59:21;99884.19;;;9.51;73.07
76257;BME280;65074;50.436;8.672;2024-03-07T13:01:49;99878.31;;;9.84;71.65
76257;BME280;65074;50.436;8.672;2024-03-07T13:04:15;99878.22;;;10.02;70.68